Brown City, Michigan
Current Conditions -  °F | °C
As of 11:13 AM on Wednesday 22 Oct 2014 (Local Time) from KD95 Reporting Station
Overcast Overcast  
Wind Chill: 42°   Ceiling: 1900
Heat Index: 46°   Visibility: 10mi
Dew Point: 38°   Wind: 9mph
Humidity: 73%   Direction: 30°NNE
Pressure: 30.35"   Gusts: NA
Location:  43.21°N, 82.99°W
Report Text: KD95 221513Z AUTO 03008KT 10SM OVC019 08/03 A3035 RMK AO2 T00790034
Loading
Personal Weather Stations






























Interactive Weather Map
Tropical Storm Tracking
New forecast layout! Learn more

10-Day Weather Forecast

Advertisements
Track Severe Weather on mobile